Buoy 51659

sailwx.info

Track history (hours):
 
Tides and Currents Weather Stations Pressure Air Temp Water Temp Dewpoint Dewpoint Depression Visibility Wind Speed Wind Dir Waves Ship Positions

Drifting buoy 51659

Last reported at 2017-Apr-01 04:00 UTC. Time now 2017-Apr-29 15:27 UTC.
Position S 17°16' E 168°26'.
Warning: this ship's position is 28 days out of date.

Water temperature 33.8 ° C

Date/timePositionNaut miles runAvg speedWind from/ knotsBaromVisibWave heightAir tempDewpointWater temp
2017-Apr-01 04:00S 17°16' E 168°26'0 0.0 33.8
2017-Apr-01 03:00S 17°16' E 168°26'0 0.0 33.8
2017-Mar-31 23:00S 17°16' E 168°26'0 0.0 30.9
2017-Mar-31 22:00S 17°16' E 168°26'1 0.1 29.8
2017-Mar-31 18:00S 17°16' E 168°26'1 0.1 27.7
2017-Mar-31 10:00S 17°16' E 168°26'0 0.0 29.5
2017-Mar-31 09:00S 17°16' E 168°26'0 0.0 29.8
2017-Mar-31 08:00S 17°16' E 168°26'0 0.0 28.9
2017-Mar-31 07:00S 17°16' E 168°26'1 0.8 28.0
2017-Mar-31 06:00S 17°16' E 168°26'1 0.6 28.8
2017-Mar-31 05:00S 17°16' E 168°26'0 0.0 28.8
2017-Mar-31 04:00S 17°16' E 168°26'1 1.3 28.9
2017-Mar-31 03:00S 17°17' E 168°26'1 0.8 29.2
2017-Mar-31 02:00S 17°16' E 168°26'0 0.0 29.1
2017-Mar-30 22:00S 17°16' E 168°26'2 2.4 28.7
2017-Mar-30 21:00S 17°17' E 168°29'0 0.0 28.6
2017-Mar-30 20:00S 17°17' E 168°29'1 0.3 28.6
2017-Mar-30 18:00S 17°17' E 168°29'1 1.3 28.5
2017-Mar-30 17:00S 17°16' E 168°30'0 0.0 28.5
2017-Mar-30 15:00S 17°16' E 168°30'1 0.3 28.6
2017-Mar-30 11:00S 17°16' E 168°29'0 0.0 28.6
2017-Mar-30 10:00S 17°16' E 168°29'1 0.8 28.6
2017-Mar-30 09:00S 17°15' E 168°29'2 0.9 28.6
2017-Mar-30 07:00S 17°14' E 168°31'0 0.0 28.6
2017-Mar-30 06:00S 17°14' E 168°31'1 0.4 28.7
2017-Mar-30 04:00S 17°14' E 168°32'1 1.2 28.7
2017-Mar-30 03:00S 17°13' E 168°32'1 0.1 28.7
2017-Mar-29 23:00S 17°13' E 168°31'1 0.6 28.8
2017-Mar-29 22:00S 17°13' E 168°31'1 0.6 28.6
2017-Mar-29 21:00S 17°13' E 168°31'2 1.2 28.6
2017-Mar-29 19:00S 17°12' E 168°34'1 1.3 28.6
2017-Mar-29 18:00S 17°13' E 168°35'0 0.0 28.6
2017-Mar-29 16:00S 17°13' E 168°35'1 0.6 28.6
2017-Mar-29 15:00S 17°13' E 168°35'1 1.3 28.6
2017-Mar-29 14:00S 17°13' E 168°37'0 0.0 28.3
2017-Mar-29 11:00S 17°13' E 168°37'1 0.8 28.9
2017-Mar-29 10:00S 17°13' E 168°37'2 1.7 29.0
2017-Mar-29 09:00S 17°13' E 168°39'0 0.0 29.0
2017-Mar-29 08:00S 17°13' E 168°39'1 1.3 29.0
2017-Mar-29 07:00S 17°13' E 168°40'1 0.6 29.0
2017-Mar-29 06:00S 17°13' E 168°40'1 0.3 29.1
2017-Mar-29 04:00S 17°13' E 168°40'0 0.0 29.2
2017-Mar-29 03:00S 17°13' E 168°40'2 0.6 29.1
2017-Mar-28 23:00S 17°14' E 168°43'1 0.4 28.6
2017-Mar-28 20:00S 17°14' E 168°44'1 0.6 29.0
2017-Mar-28 19:00S 17°14' E 168°44'1 0.8 28.9
2017-Mar-28 18:00S 17°13' E 168°45'1 0.6 28.9
2017-Mar-28 16:00S 17°13' E 168°46'0 0.0 28.8
2017-Mar-28 15:00S 17°13' E 168°46'1 0.6 28.8
2017-Mar-28 14:00S 17°13' E 168°47'1 0.4 28.8
2017-Mar-28 11:00S 17°13' E 168°48'1 1.2 29.2
2017-Mar-28 10:00S 17°11' E 168°48'0 0.0 29.3
2017-Mar-28 09:00S 17°11' E 168°48'1 0.6 29.2
2017-Mar-28 08:00S 17°11' E 168°49'2 2.1 29.5
2017-Mar-28 07:00S 17°10' E 168°47'1 1.2 29.8
2017-Mar-28 06:00S 17°08' E 168°47'1 1.3 30.0
2017-Mar-28 05:00S 17°08' E 168°46'1 1.3 30.1
2017-Mar-28 04:00S 17°07' E 168°46'1 0.6 30.5
2017-Mar-28 03:00S 17°07' E 168°45'0 0.0 30.7
2017-Mar-28 02:00S 17°07' E 168°45'4 0.9 29.6
2017-Mar-27 22:00S 17°04' E 168°42'1 1.2 29.0
2017-Mar-27 21:00S 17°03' E 168°42'1 1.2 29.0
2017-Mar-27 20:00S 17°02' E 168°42'0 0.0 29.0
2017-Mar-27 19:00S 17°02' E 168°42'1 0.6 28.9
2017-Mar-27 18:00S 17°02' E 168°41'2 0.9 29.0
2017-Mar-27 16:00S 17°00' E 168°41'4 0.8 29.0
2017-Mar-27 11:00S 16°57' E 168°38'1 1.2 29.3
2017-Mar-27 10:00S 16°56' E 168°38'1 1.3 29.4
2017-Mar-27 09:00S 16°55' E 168°38'2 1.8 29.2
2017-Mar-27 08:00S 16°53' E 168°38'0 0.0 29.1
2017-Mar-27 07:00S 16°53' E 168°38'1 1.2 29.2
2017-Mar-27 06:00S 16°52' E 168°38'1 0.6 28.9
2017-Mar-27 05:00S 16°52' E 168°37'1 0.6 28.8
2017-Mar-27 04:00S 16°51' E 168°37'0 0.0 28.6
2017-Mar-27 03:00S 16°51' E 168°37'2 0.4 28.3
2017-Mar-26 23:00S 16°51' E 168°35'1 1.3 28.0
2017-Mar-26 22:00S 16°52' E 168°34'1 0.6 28.1
2017-Mar-26 20:00S 16°51' E 168°33'0 0.0 28.1
2017-Mar-26 19:00S 16°51' E 168°33'1 0.3 28.1
2017-Mar-26 17:00S 16°51' E 168°34'1 0.6 28.2
2017-Mar-26 16:00S 16°51' E 168°34'4 4.4 28.3
2017-Mar-26 15:00S 16°53' E 168°30'2 0.6 28.4
2017-Mar-26 11:00S 16°53' E 168°28'0 0.0 27.9
2017-Mar-26 10:00S 16°53' E 168°28'1 1.2 27.1
2017-Mar-26 09:00S 16°52' E 168°28'0 0.0 27.5
2017-Mar-26 08:00S 16°52' E 168°28'0 0.0 27.7
2017-Mar-26 07:00S 16°52' E 168°28'1 0.4 27.5
2017-Mar-26 05:00S 16°52' E 168°28'2 0.8 28.4
2017-Mar-26 03:00S 16°50' E 168°29'1 0.3 28.7
2017-Mar-25 22:00S 16°49' E 168°29'0 0.0 28.4
2017-Mar-25 21:00S 16°49' E 168°29'1 0.3 28.5
2017-Mar-25 19:00S 16°50' E 168°29'2 0.6 28.1
2017-Mar-25 16:00S 16°48' E 168°29'0 0.0 27.5
2017-Mar-25 15:00S 16°48' E 168°29'2 0.5 27.5
2017-Mar-25 11:00S 16°46' E 168°29'0 0.0 29.4
2017-Mar-25 09:00S 16°46' E 168°29'1 0.8 29.5
2017-Mar-25 08:00S 16°46' E 168°28'1 0.8 29.3
2017-Mar-25 07:00S 16°45' E 168°28'1 0.3 29.5
2017-Mar-25 05:00S 16°44' E 168°28'1 1.3 29.7
2017-Mar-25 04:00S 16°43' E 168°27'1 0.6 30.6
2017-Mar-25 03:00S 16°43' E 168°26'2 0.6 30.2
2017-Mar-24 23:00S 16°41' E 168°26'1 0.8 29.2
2017-Mar-24 22:00S 16°40' E 168°26'0 0.0 29.1
2017-Mar-24 21:00S 16°40' E 168°26'1 0.6 29.1
2017-Mar-24 20:00S 16°40' E 168°27'1 1.3 29.1
2017-Mar-24 19:00S 16°40' E 168°28'0 0.0 29.1
2017-Mar-24 18:00S 16°40' E 168°28'0 0.0 29.1
2017-Mar-24 14:00S 16°40' E 168°28'1 0.4 29.2
2017-Mar-24 11:00S 16°39' E 168°29'2 2.1 29.2
2017-Mar-24 10:00S 16°40' E 168°31'0 0.0 29.3
2017-Mar-24 09:00S 16°40' E 168°31'2 1.8 29.3
2017-Mar-24 08:00S 16°38' E 168°31'2 0.8 29.3
2017-Mar-24 05:00S 16°38' E 168°34'1 1.1 29.4
2017-Mar-24 04:00S 16°38' E 168°35'1 1.1 29.5
2017-Mar-24 03:00S 16°38' E 168°34'1 0.3 29.5
2017-Mar-23 23:00S 16°38' E 168°35'0 0.0 29.2
2017-Mar-23 21:00S 16°38' E 168°35'1 1.3 29.1
2017-Mar-23 20:00S 16°38' E 168°36'0 0.0 29.1
2017-Mar-23 19:00S 16°38' E 168°36'3 0.3 29.1
2017-Mar-23 11:00S 16°37' E 168°38'2 1.8 29.2
2017-Mar-23 10:00S 16°36' E 168°40'1 0.3 29.2
2017-Mar-23 08:00S 16°35' E 168°40'0 0.0 29.2
2017-Mar-23 07:00S 16°35' E 168°40'1 0.6 29.3
2017-Mar-23 06:00S 16°36' E 168°40'1 0.8 29.3
2017-Mar-23 05:00S 16°35' E 168°41'0 0.0 29.3
2017-Mar-23 04:00S 16°35' E 168°41'1 1.3 29.4
2017-Mar-23 03:00S 16°34' E 168°41'1 0.2 29.3
2017-Mar-22 22:00S 16°34' E 168°42'2 0.3 29.2
2017-Mar-22 17:00S 16°32' E 168°43'0 0.0 29.2
2017-Mar-22 15:00S 16°32' E 168°43'2 0.6 29.2
2017-Mar-22 11:00S 16°31' E 168°45'1 0.8 29.2
2017-Mar-22 10:00S 16°30' E 168°46'1 0.6 29.2
2017-Mar-22 09:00S 16°29' E 168°46'1 0.6 29.2
2017-Mar-22 08:00S 16°29' E 168°46'0 0.0 29.3
2017-Mar-22 07:00S 16°29' E 168°46'1 0.4 29.2
2017-Mar-22 05:00S 16°29' E 168°47'1 0.6 29.3
2017-Mar-22 04:00S 16°29' E 168°47'   29.3
Track history (hours):
 
Tides and Currents Weather Stations Pressure Air Temp Water Temp Dewpoint Dewpoint Depression Visibility Wind Speed Wind Dir Waves Ship Positions

Drifting buoy 51659

Last reported at 2017-Apr-01 04:00 UTC. Time now 2017-Apr-29 15:27 UTC.
Position S 17°16' E 168°26'.
Warning: this ship's position is 28 days out of date.

Water temperature 33.8 ° C

Date/timePositionNaut miles runAvg speedWind from/ knotsBaromVisibWave heightAir tempDewpointWater temp
2017-Apr-01 04:00S 17°16' E 168°26'0 0.0 33.8
2017-Apr-01 03:00S 17°16' E 168°26'0 0.0 33.8
2017-Mar-31 23:00S 17°16' E 168°26'0 0.0 30.9
2017-Mar-31 22:00S 17°16' E 168°26'1 0.1 29.8
2017-Mar-31 18:00S 17°16' E 168°26'1 0.1 27.7
2017-Mar-31 10:00S 17°16' E 168°26'0 0.0 29.5
2017-Mar-31 09:00S 17°16' E 168°26'0 0.0 29.8
2017-Mar-31 08:00S 17°16' E 168°26'0 0.0 28.9
2017-Mar-31 07:00S 17°16' E 168°26'1 0.8 28.0
2017-Mar-31 06:00S 17°16' E 168°26'1 0.6 28.8
2017-Mar-31 05:00S 17°16' E 168°26'0 0.0 28.8
2017-Mar-31 04:00S 17°16' E 168°26'1 1.3 28.9
2017-Mar-31 03:00S 17°17' E 168°26'1 0.8 29.2
2017-Mar-31 02:00S 17°16' E 168°26'0 0.0 29.1
2017-Mar-30 22:00S 17°16' E 168°26'2 2.4 28.7
2017-Mar-30 21:00S 17°17' E 168°29'0 0.0 28.6
2017-Mar-30 20:00S 17°17' E 168°29'1 0.3 28.6
2017-Mar-30 18:00S 17°17' E 168°29'1 1.3 28.5
2017-Mar-30 17:00S 17°16' E 168°30'0 0.0 28.5
2017-Mar-30 15:00S 17°16' E 168°30'1 0.3 28.6
2017-Mar-30 11:00S 17°16' E 168°29'0 0.0 28.6
2017-Mar-30 10:00S 17°16' E 168°29'1 0.8 28.6
2017-Mar-30 09:00S 17°15' E 168°29'2 0.9 28.6
2017-Mar-30 07:00S 17°14' E 168°31'0 0.0 28.6
2017-Mar-30 06:00S 17°14' E 168°31'1 0.4 28.7
2017-Mar-30 04:00S 17°14' E 168°32'1 1.2 28.7
2017-Mar-30 03:00S 17°13' E 168°32'1 0.1 28.7
2017-Mar-29 23:00S 17°13' E 168°31'1 0.6 28.8
2017-Mar-29 22:00S 17°13' E 168°31'1 0.6 28.6
2017-Mar-29 21:00S 17°13' E 168°31'2 1.2 28.6
2017-Mar-29 19:00S 17°12' E 168°34'1 1.3 28.6
2017-Mar-29 18:00S 17°13' E 168°35'0 0.0 28.6
2017-Mar-29 16:00S 17°13' E 168°35'1 0.6 28.6
2017-Mar-29 15:00S 17°13' E 168°35'1 1.3 28.6
2017-Mar-29 14:00S 17°13' E 168°37'0 0.0 28.3
2017-Mar-29 11:00S 17°13' E 168°37'1 0.8 28.9
2017-Mar-29 10:00S 17°13' E 168°37'2 1.7 29.0
2017-Mar-29 09:00S 17°13' E 168°39'0 0.0 29.0
2017-Mar-29 08:00S 17°13' E 168°39'1 1.3 29.0
2017-Mar-29 07:00S 17°13' E 168°40'1 0.6 29.0
2017-Mar-29 06:00S 17°13' E 168°40'1 0.3 29.1
2017-Mar-29 04:00S 17°13' E 168°40'0 0.0 29.2
2017-Mar-29 03:00S 17°13' E 168°40'2 0.6 29.1
2017-Mar-28 23:00S 17°14' E 168°43'1 0.4 28.6
2017-Mar-28 20:00S 17°14' E 168°44'1 0.6 29.0
2017-Mar-28 19:00S 17°14' E 168°44'1 0.8 28.9
2017-Mar-28 18:00S 17°13' E 168°45'1 0.6 28.9
2017-Mar-28 16:00S 17°13' E 168°46'0 0.0 28.8
2017-Mar-28 15:00S 17°13' E 168°46'1 0.6 28.8
2017-Mar-28 14:00S 17°13' E 168°47'1 0.4 28.8
2017-Mar-28 11:00S 17°13' E 168°48'1 1.2 29.2
2017-Mar-28 10:00S 17°11' E 168°48'0 0.0 29.3
2017-Mar-28 09:00S 17°11' E 168°48'1 0.6 29.2
2017-Mar-28 08:00S 17°11' E 168°49'2 2.1 29.5
2017-Mar-28 07:00S 17°10' E 168°47'1 1.2 29.8
2017-Mar-28 06:00S 17°08' E 168°47'1 1.3 30.0
2017-Mar-28 05:00S 17°08' E 168°46'1 1.3 30.1
2017-Mar-28 04:00S 17°07' E 168°46'1 0.6 30.5
2017-Mar-28 03:00S 17°07' E 168°45'0 0.0 30.7
2017-Mar-28 02:00S 17°07' E 168°45'4 0.9 29.6
2017-Mar-27 22:00S 17°04' E 168°42'1 1.2 29.0
2017-Mar-27 21:00S 17°03' E 168°42'1 1.2 29.0
2017-Mar-27 20:00S 17°02' E 168°42'0 0.0 29.0
2017-Mar-27 19:00S 17°02' E 168°42'1 0.6 28.9
2017-Mar-27 18:00S 17°02' E 168°41'2 0.9 29.0
2017-Mar-27 16:00S 17°00' E 168°41'4 0.8 29.0
2017-Mar-27 11:00S 16°57' E 168°38'1 1.2 29.3
2017-Mar-27 10:00S 16°56' E 168°38'1 1.3 29.4
2017-Mar-27 09:00S 16°55' E 168°38'2 1.8 29.2
2017-Mar-27 08:00S 16°53' E 168°38'0 0.0 29.1
2017-Mar-27 07:00S 16°53' E 168°38'1 1.2 29.2
2017-Mar-27 06:00S 16°52' E 168°38'1 0.6 28.9
2017-Mar-27 05:00S 16°52' E 168°37'1 0.6 28.8
2017-Mar-27 04:00S 16°51' E 168°37'0 0.0 28.6
2017-Mar-27 03:00S 16°51' E 168°37'2 0.4 28.3
2017-Mar-26 23:00S 16°51' E 168°35'1 1.3 28.0
2017-Mar-26 22:00S 16°52' E 168°34'1 0.6 28.1
2017-Mar-26 20:00S 16°51' E 168°33'0 0.0 28.1
2017-Mar-26 19:00S 16°51' E 168°33'1 0.3 28.1
2017-Mar-26 17:00S 16°51' E 168°34'1 0.6 28.2
2017-Mar-26 16:00S 16°51' E 168°34'4 4.4 28.3
2017-Mar-26 15:00S 16°53' E 168°30'2 0.6 28.4
2017-Mar-26 11:00S 16°53' E 168°28'0 0.0 27.9
2017-Mar-26 10:00S 16°53' E 168°28'1 1.2 27.1
2017-Mar-26 09:00S 16°52' E 168°28'0 0.0 27.5
2017-Mar-26 08:00S 16°52' E 168°28'0 0.0 27.7
2017-Mar-26 07:00S 16°52' E 168°28'1 0.4 27.5
2017-Mar-26 05:00S 16°52' E 168°28'2 0.8 28.4
2017-Mar-26 03:00S 16°50' E 168°29'1 0.3 28.7
2017-Mar-25 22:00S 16°49' E 168°29'0 0.0 28.4
2017-Mar-25 21:00S 16°49' E 168°29'1 0.3 28.5
2017-Mar-25 19:00S 16°50' E 168°29'2 0.6 28.1
2017-Mar-25 16:00S 16°48' E 168°29'0 0.0 27.5
2017-Mar-25 15:00S 16°48' E 168°29'2 0.5 27.5
2017-Mar-25 11:00S 16°46' E 168°29'0 0.0 29.4
2017-Mar-25 09:00S 16°46' E 168°29'1 0.8 29.5
2017-Mar-25 08:00S 16°46' E 168°28'1 0.8 29.3
2017-Mar-25 07:00S 16°45' E 168°28'1 0.3 29.5
2017-Mar-25 05:00S 16°44' E 168°28'1 1.3 29.7
2017-Mar-25 04:00S 16°43' E 168°27'1 0.6 30.6
2017-Mar-25 03:00S 16°43' E 168°26'2 0.6 30.2
2017-Mar-24 23:00S 16°41' E 168°26'1 0.8 29.2
2017-Mar-24 22:00S 16°40' E 168°26'0 0.0 29.1
2017-Mar-24 21:00S 16°40' E 168°26'1 0.6 29.1
2017-Mar-24 20:00S 16°40' E 168°27'1 1.3 29.1
2017-Mar-24 19:00S 16°40' E 168°28'0 0.0 29.1
2017-Mar-24 18:00S 16°40' E 168°28'0 0.0 29.1
2017-Mar-24 14:00S 16°40' E 168°28'1 0.4 29.2
2017-Mar-24 11:00S 16°39' E 168°29'2 2.1 29.2
2017-Mar-24 10:00S 16°40' E 168°31'0 0.0 29.3
2017-Mar-24 09:00S 16°40' E 168°31'2 1.8 29.3
2017-Mar-24 08:00S 16°38' E 168°31'2 0.8 29.3
2017-Mar-24 05:00S 16°38' E 168°34'1 1.1 29.4
2017-Mar-24 04:00S 16°38' E 168°35'1 1.1 29.5
2017-Mar-24 03:00S 16°38' E 168°34'1 0.3 29.5
2017-Mar-23 23:00S 16°38' E 168°35'0 0.0 29.2
2017-Mar-23 21:00S 16°38' E 168°35'1 1.3 29.1
2017-Mar-23 20:00S 16°38' E 168°36'0 0.0 29.1
2017-Mar-23 19:00S 16°38' E 168°36'3 0.3 29.1
2017-Mar-23 11:00S 16°37' E 168°38'2 1.8 29.2
2017-Mar-23 10:00S 16°36' E 168°40'1 0.3 29.2
2017-Mar-23 08:00S 16°35' E 168°40'0 0.0 29.2
2017-Mar-23 07:00S 16°35' E 168°40'1 0.6 29.3
2017-Mar-23 06:00S 16°36' E 168°40'1 0.8 29.3
2017-Mar-23 05:00S 16°35' E 168°41'0 0.0 29.3
2017-Mar-23 04:00S 16°35' E 168°41'1 1.3 29.4
2017-Mar-23 03:00S 16°34' E 168°41'1 0.2 29.3
2017-Mar-22 22:00S 16°34' E 168°42'2 0.3 29.2
2017-Mar-22 17:00S 16°32' E 168°43'0 0.0 29.2
2017-Mar-22 15:00S 16°32' E 168°43'2 0.6 29.2
2017-Mar-22 11:00S 16°31' E 168°45'1 0.8 29.2
2017-Mar-22 10:00S 16°30' E 168°46'1 0.6 29.2
2017-Mar-22 09:00S 16°29' E 168°46'1 0.6 29.2
2017-Mar-22 08:00S 16°29' E 168°46'0 0.0 29.3
2017-Mar-22 07:00S 16°29' E 168°46'1 0.4 29.2
2017-Mar-22 05:00S 16°29' E 168°47'1 0.6 29.3
2017-Mar-22 04:00S 16°29' E 168°47'   29.3

Dump ship's entire track history